Time;durP1;ratioP1;P1;durP2;ratioP2;P2;SDS_P1;SDS_P2;PMS_P1;PMS_P2;Temp;Humidity;BMP_temperature;BMP_pressure;BME280_temperature;BME280_humidity;BME280_pressure;Samples;Min_cycle;Max_cycle;Signal;HPM_P1;HPM_P2
2021/12/01 00:00:37;;;;;;;;;;;;;;;-144.99;100.00;52662.13;4997970;28;20037;-63
2021/12/01 00:03:05;;;;;;;;;;;;;;;-144.99;100.00;52605.03;4994320;28;20005;-63
2021/12/01 00:05:32;;;;;;;;;;;;;;;-144.99;100.00;52631.53;4989642;28;20517;-64
2021/12/01 00:07:59;;;;;;;;;;;;;;;-144.99;100.00;52647.84;4993889;28;20081;-64
2021/12/01 00:10:26;;;;;;;;;;;;;;;-144.99;100.00;52615.25;4999108;28;19994;-63
2021/12/01 00:12:53;;;;;;;;;;;;;;;-144.99;100.00;52617.28;4991022;28;20017;-61
2021/12/01 00:15:20;;;;;;;;;;;;;;;-144.99;100.00;52639.69;4988364;28;20069;-63
2021/12/01 00:17:47;;;;;;;;;;;;;;;-144.99;100.00;52647.84;4995747;28;19974;-64
2021/12/01 00:20:16;;;;;;;;;;;;;;;-144.99;100.00;52611.16;4995419;28;19983;-61
2021/12/01 00:22:43;;;;;;;;;;;;;;;-144.99;100.00;52684.53;4992267;28;20105;-61
2021/12/01 00:25:11;;;;;;;;;;;;;;;-144.99;100.00;52680.47;4989662;28;20017;-61
2021/12/01 00:27:38;;;;;;;;;;;;;;;-144.99;100.00;52660.09;5004919;28;20000;-61
2021/12/01 00:30:05;;;;;;;;;;;;;;;-144.99;100.00;52627.47;4996421;28;19978;-59
2021/12/01 00:32:32;;;;;;;;;;;;;;;-144.99;100.00;52658.03;5002782;28;20024;-60
2021/12/01 00:35:01;;;;;;;;;;;;;;;-144.99;100.00;52633.59;4998804;28;20013;-60
2021/12/01 00:37:29;;;;;;;;;;;;;;;-144.99;100.00;52631.53;4999111;28;19981;-61
2021/12/01 00:39:55;;;;;;;;;;;;;;;-144.99;100.00;52653.97;4996335;28;19982;-60
2021/12/01 00:42:22;;;;;;;;;;;;;;;-144.99;100.00;52627.47;4998618;28;19977;-60
2021/12/01 00:44:55;;;;;;;;;;;;;;;-144.99;100.00;52653.97;4991272;28;20411;-60
2021/12/01 00:47:23;;;;;;;;;;;;;;;-144.99;100.00;52631.53;4988962;28;20002;-58
2021/12/01 00:49:49;;;;;;;;;;;;;;;-144.99;100.00;52643.78;4992749;28;20277;-57
2021/12/01 00:52:16;;;;;;;;;;;;;;;-144.99;100.00;52647.84;4992327;28;20052;-58
2021/12/01 00:54:44;;;;;;;;;;;;;;;-144.99;100.00;52623.38;4992684;28;19994;-59
2021/12/01 00:57:10;;;;;;;;;;;;;;;-144.99;100.00;52635.63;4990109;28;20426;-59
2021/12/01 00:59:37;;;;;;;;;;;;;;;-144.99;100.00;52635.63;4991502;28;19978;-58
2021/12/01 01:02:04;;;;;;;;;;;;;;;-144.99;100.00;52656.00;4988802;28;20415;-58
2021/12/01 01:04:30;;;;;;;;;;;;;;;-144.99;100.00;52651.94;4989163;28;20052;-59
2021/12/01 01:06:57;;;;;;;;;;;;;;;-144.99;100.00;52629.50;4992272;28;20390;-59
2021/12/01 01:09:30;;;;;;;;;;;;;;;-144.99;100.00;52653.97;4992409;28;20060;-59
2021/12/01 01:17:37;;;;;;;;;;;;;;;-144.99;100.00;52664.16;4987034;28;20024;-59
2021/12/01 01:20:05;;;;;;;;;;;;;;;-144.99;100.00;52635.63;4990814;28;19985;-58
2021/12/01 01:22:32;;;;;;;;;;;;;;;-144.99;100.00;52590.78;4994709;28;20521;-59
2021/12/01 01:24:59;;;;;;;;;;;;;;;-144.99;100.00;52607.09;4993537;28;19974;-60
2021/12/01 01:27:27;;;;;;;;;;;;;;;-144.99;100.00;52635.63;4992253;28;20005;-59
2021/12/01 01:29:53;;;;;;;;;;;;;;;-144.99;100.00;52611.16;4989088;28;20486;-60
2021/12/01 01:32:20;;;;;;;;;;;;;;;-144.99;100.00;52631.53;4993036;28;20370;-60
2021/12/01 01:34:46;;;;;;;;;;;;;;;-144.99;100.00;52627.47;4992478;28;20287;-60
2021/12/01 01:37:15;;;;;;;;;;;;;;;-144.99;100.00;52580.59;4998507;28;20058;-60
2021/12/01 01:39:42;;;;;;;;;;;;;;;-144.99;100.00;52603.00;4993042;28;19978;-60
2021/12/01 01:42:08;;;;;;;;;;;;;;;-144.99;100.00;52656.00;4987788;28;19979;-60
2021/12/01 01:44:36;;;;;;;;;;;;;;;-144.99;100.00;52623.38;4991869;28;20061;-61
2021/12/01 01:47:03;;;;;;;;;;;;;;;-144.99;100.00;52643.78;4993764;28;19978;-61
2021/12/01 01:49:42;;;;;;;;;;;;;;;-144.99;100.00;52639.69;5000337;28;20103;-60
2021/12/01 01:52:09;;;;;;;;;;;;;;;-144.99;100.00;52582.63;4993128;28;20341;-60
2021/12/01 01:54:35;;;;;;;;;;;;;;;-144.99;100.00;52611.16;4991404;28;20029;-60
2021/12/01 01:57:02;;;;;;;;;;;;;;;-144.99;100.00;52613.19;5002496;28;20076;-60
2021/12/01 01:59:28;;;;;;;;;;;;;;;-144.99;100.00;52615.25;5001018;28;20232;-60
2021/12/01 02:01:58;;;;;;;;;;;;;;;-144.99;100.00;52619.31;4995690;28;19990;-60
2021/12/01 02:04:25;;;;;;;;;;;;;;;-144.99;100.00;52605.03;4994633;28;19990;-61
2021/12/01 02:06:52;;;;;;;;;;;;;;;-144.99;100.00;52651.94;4994772;28;20332;-59
2021/12/01 02:09:20;;;;;;;;;;;;;;;-144.99;100.00;52664.16;4996883;28;20031;-61
2021/12/01 02:11:47;;;;;;;;;;;;;;;-144.99;100.00;52611.16;4998211;28;20354;-61
2021/12/01 02:14:16;;;;;;;;;;;;;;;-144.99;100.00;52582.63;4992909;28;20002;-61
2021/12/01 02:16:42;;;;;;;;;;;;;;;-144.99;100.00;52647.84;4998899;28;20226;-62
2021/12/01 02:19:10;;;;;;;;;;;;;;;-144.99;100.00;52629.50;4993197;28;19978;-62
2021/12/01 02:21:38;;;;;;;;;;;;;;;-144.99;100.00;52611.16;4994416;28;19984;-61
2021/12/01 02:24:06;;;;;;;;;;;;;;;-144.99;100.00;52639.69;4987765;28;19990;-59
2021/12/01 02:26:34;;;;;;;;;;;;;;;-144.99;100.00;52596.88;4992191;28;19986;-60
2021/12/01 02:29:01;;;;;;;;;;;;;;;-144.99;100.00;52607.09;4994570;28;19994;-59
2021/12/01 02:31:33;;;;;;;;;;;;;;;-144.99;100.00;52582.63;4995268;28;20065;-60
2021/12/01 02:34:00;;;;;;;;;;;;;;;-144.99;100.00;52619.31;4992166;28;20008;-60
2021/12/01 02:36:27;;;;;;;;;;;;;;;-144.99;100.00;52603.00;4996478;28;19978;-60
2021/12/01 02:38:55;;;;;;;;;;;;;;;-144.99;100.00;52603.00;4991174;28;19985;-61
2021/12/01 02:41:27;;;;;;;;;;;;;;;-144.99;100.00;52615.25;4994804;28;20021;-62
2021/12/01 02:43:53;;;;;;;;;;;;;;;-144.99;100.00;52623.38;4988408;28;20469;-62
2021/12/01 02:46:20;;;;;;;;;;;;;;;-144.99;100.00;52656.00;4991554;28;19981;-62
2021/12/01 02:48:47;;;;;;;;;;;;;;;-144.99;100.00;52656.00;4990064;28;20002;-62
2021/12/01 02:51:14;;;;;;;;;;;;;;;-144.99;100.00;52639.69;4990935;28;20331;-63
2021/12/01 02:53:41;;;;;;;;;;;;;;;-144.99;100.00;52615.25;4990772;28;20052;-62
2021/12/01 02:56:09;;;;;;;;;;;;;;;-144.99;100.00;52627.47;4990764;28;19978;-63
2021/12/01 02:58:40;;;;;;;;;;;;;;;-144.99;100.00;52621.34;4986543;28;20432;-63
2021/12/01 03:01:09;;;;;;;;;;;;;;;-144.99;100.00;52607.09;4990956;28;19979;-63
2021/12/01 03:03:35;;;;;;;;;;;;;;;-144.99;100.00;52643.78;4990240;28;20226;-63
2021/12/01 03:06:03;;;;;;;;;;;;;;;-144.99;100.00;52617.28;4989659;28;20120;-64
2021/12/01 03:08:29;;;;;;;;;;;;;;;-144.99;100.00;52627.47;4990259;28;19990;-65
2021/12/01 03:10:57;;;;;;;;;;;;;;;-144.99;100.00;52651.94;4989908;28;19998;-63
2021/12/01 03:13:25;;;;;;;;;;;;;;;-144.99;100.00;52629.50;4989334;28;20061;-63
2021/12/01 03:15:52;;;;;;;;;;;;;;;-144.99;100.00;52619.31;4997229;28;20020;-63
2021/12/01 03:18:19;;;;;;;;;;;;;;;-144.99;100.00;52619.31;4999663;28;20491;-63
2021/12/01 03:20:46;;;;;;;;;;;;;;;-144.99;100.00;52607.09;4990796;28;19974;-63
2021/12/01 03:23:13;;;;;;;;;;;;;;;-144.99;100.00;52578.53;4989339;28;20009;-64
2021/12/01 03:25:39;;;;;;;;;;;;;;;-144.99;100.00;52605.03;4994882;28;20403;-62
2021/12/01 03:28:06;;;;;;;;;;;;;;;-144.99;100.00;52623.38;4995910;28;19978;-64
2021/12/01 03:30:36;;;;;;;;;;;;;;;-144.99;100.00;52643.78;4990067;28;20407;-58
2021/12/01 03:33:04;;;;;;;;;;;;;;;-144.99;100.00;52631.53;4989844;28;20034;-58
2021/12/01 03:35:30;;;;;;;;;;;;;;;-144.99;100.00;52607.09;4989555;28;19978;-58
2021/12/01 03:37:57;;;;;;;;;;;;;;;-144.99;100.00;52621.34;4991827;28;20021;-58
2021/12/01 03:40:23;;;;;;;;;;;;;;;-144.99;100.00;52615.25;4992951;28;19982;-58
2021/12/01 03:42:50;;;;;;;;;;;;;;;-144.99;100.00;52643.78;4992132;28;20344;-59
2021/12/01 03:45:17;;;;;;;;;;;;;;;-144.99;100.00;52617.28;4991679;28;19978;-59
2021/12/01 03:47:45;;;;;;;;;;;;;;;-144.99;100.00;52635.63;4995743;28;20296;-60
2021/12/01 03:50:11;;;;;;;;;;;;;;;-144.99;100.00;52609.13;4992983;28;20045;-58
2021/12/01 03:52:38;;;;;;;;;;;;;;;-144.99;100.00;52635.63;4994580;28;20056;-60
2021/12/01 03:55:06;;;;;;;;;;;;;;;-144.99;100.00;52651.94;4990784;28;20029;-59
2021/12/01 03:57:33;;;;;;;;;;;;;;;-144.99;100.00;52603.00;4991334;28;19979;-60
2021/12/01 03:59:59;;;;;;;;;;;;;;;-144.99;100.00;52594.84;4995564;28;20025;-60
2021/12/01 04:02:26;;;;;;;;;;;;;;;-144.99;100.00;52598.94;5003683;28;20036;-60
2021/12/01 04:04:55;;;;;;;;;;;;;;;-144.99;100.00;52623.38;5000809;28;20095;-60
2021/12/01 04:07:21;;;;;;;;;;;;;;;-144.99;100.00;52615.25;5002773;28;19985;-60
2021/12/01 04:09:52;;;;;;;;;;;;;;;-144.99;100.00;52627.47;5000748;28;20038;-58
2021/12/01 04:12:19;;;;;;;;;;;;;;;-144.99;100.00;52594.84;5052532;22;20032;-76
2021/12/01 04:14:46;;;;;;;;;;;;;;;-144.99;100.00;52623.38;5045329;28;20516;-76
2021/12/01 04:17:12;;;;;;;;;;;;;;;-144.99;100.00;52627.47;5047267;28;20411;-77
2021/12/01 04:19:39;;;;;;;;;;;;;;;-144.99;100.00;52631.53;5049579;28;20086;-76
2021/12/01 04:22:07;;;;;;;;;;;;;;;-144.99;100.00;52590.78;5045206;28;20034;-75
2021/12/01 04:24:33;;;;;;;;;;;;;;;-144.99;100.00;52635.63;5048277;28;21562;-77
2021/12/01 04:27:00;;;;;;;;;;;;;;;-144.99;100.00;52615.25;5049777;28;19981;-76
2021/12/01 04:29:27;;;;;;;;;;;;;;;-144.99;100.00;52611.16;5047620;28;19929;-78
2021/12/01 04:31:53;;;;;;;;;;;;;;;-144.99;100.00;52594.84;5048857;28;20487;-74
2021/12/01 04:34:21;;;;;;;;;;;;;;;-144.99;100.00;52576.50;5044975;28;20081;-76
2021/12/01 04:36:48;;;;;;;;;;;;;;;-144.99;100.00;52639.69;5047499;28;20076;-76
2021/12/01 04:39:17;;;;;;;;;;;;;;;-144.99;100.00;52570.38;5046654;28;19996;-76
2021/12/01 04:41:50;;;;;;;;;;;;;;;-144.99;100.00;52619.31;5047128;28;20033;-76
2021/12/01 04:44:19;;;;;;;;;;;;;;;-144.99;100.00;52607.09;5044338;28;19980;-76
2021/12/01 04:46:46;;;;;;;;;;;;;;;-144.99;100.00;52590.78;5047726;28;19989;-76
2021/12/01 04:49:13;;;;;;;;;;;;;;;-144.99;100.00;52598.94;5040480;28;20023;-76
2021/12/01 04:51:41;;;;;;;;;;;;;;;-144.99;100.00;52631.53;5047118;28;20438;-76
2021/12/01 04:54:07;;;;;;;;;;;;;;;-144.99;100.00;52607.09;5042993;28;20489;-76
2021/12/01 04:56:36;;;;;;;;;;;;;;;-144.99;100.00;52627.47;5045654;28;20472;-79
2021/12/01 04:59:03;;;;;;;;;;;;;;;-144.99;100.00;52582.63;5050872;28;20035;-79
2021/12/01 05:01:29;;;;;;;;;;;;;;;-144.99;100.00;52611.16;5051380;28;20024;-79
2021/12/01 05:03:56;;;;;;;;;;;;;;;-144.99;100.00;52600.97;5049045;28;20473;-79
2021/12/01 05:06:23;;;;;;;;;;;;;;;-144.99;100.00;52615.25;5046955;28;20028;-78
2021/12/01 05:08:49;;;;;;;;;;;;;;;-144.99;100.00;52623.38;5052397;28;20572;-79
2021/12/01 05:11:15;;;;;;;;;;;;;;;-144.99;100.00;52594.84;5047528;28;20486;-80
2021/12/01 05:13:43;;;;;;;;;;;;;;;-144.99;100.00;52582.63;5050508;28;19993;-72
2021/12/01 05:16:10;;;;;;;;;;;;;;;-144.99;100.00;52574.47;5043893;28;19973;-73
2021/12/01 05:18:36;;;;;;;;;;;;;;;-144.99;100.00;52574.47;5058629;28;20016;-82
2021/12/01 05:21:03;;;;;;;;;;;;;;;-144.99;100.00;52562.25;5072607;28;20035;-81
2021/12/01 05:23:30;;;;;;;;;;;;;;;-144.99;100.00;52598.94;5049694;28;19977;-76
2021/12/01 05:25:57;;;;;;;;;;;;;;;-144.99;100.00;52594.84;5043322;28;20063;-76
2021/12/01 05:28:24;;;;;;;;;;;;;;;-144.99;100.00;52611.16;5044659;28;20414;-75
2021/12/01 05:30:51;;;;;;;;;;;;;;;-144.99;100.00;52603.00;5043460;28;20043;-75
2021/12/01 05:33:18;;;;;;;;;;;;;;;-144.99;100.00;52586.69;5039586;28;20549;-76
2021/12/01 05:35:46;;;;;;;;;;;;;;;-144.99;100.00;52609.13;5047696;28;20030;-76
2021/12/01 05:38:13;;;;;;;;;;;;;;;-144.99;100.00;52586.69;5042662;28;19997;-76
2021/12/01 05:40:40;;;;;;;;;;;;;;;-144.99;100.00;52586.69;5047349;28;19993;-79
2021/12/01 05:43:06;;;;;;;;;;;;;;;-144.99;100.00;52605.03;5044707;28;20013;-77
2021/12/01 05:45:33;;;;;;;;;;;;;;;-144.99;100.00;52574.47;5045823;28;20110;-77
2021/12/01 05:48:01;;;;;;;;;;;;;;;-144.99;100.00;52607.09;5044740;28;19974;-78
2021/12/01 05:50:28;;;;;;;;;;;;;;;-144.99;100.00;52562.25;5045615;28;20061;-77
2021/12/01 05:52:54;;;;;;;;;;;;;;;-144.99;100.00;52578.53;5043445;28;21896;-74
2021/12/01 05:55:21;;;;;;;;;;;;;;;-144.99;100.00;52566.31;5046136;28;20072;-77
2021/12/01 05:57:47;;;;;;;;;;;;;;;-144.99;100.00;52607.09;5042643;28;19977;-79
2021/12/01 06:00:14;;;;;;;;;;;;;;;-144.99;100.00;52580.59;5049546;28;19973;-80
2021/12/01 06:02:42;;;;;;;;;;;;;;;-144.99;100.00;52611.16;5046563;28;20020;-76
2021/12/01 06:05:11;;;;;;;;;;;;;;;-144.99;100.00;52574.47;5044360;28;20052;-76
2021/12/01 06:07:37;;;;;;;;;;;;;;;-144.99;100.00;52558.16;4694350;28;10000344;-74
2021/12/01 06:10:04;;;;;;;;;;;;;;;-144.99;100.00;52588.75;5042080;28;19997;-75
2021/12/01 06:12:30;;;;;;;;;;;;;;;-144.99;100.00;52541.84;5046636;28;20024;-77
2021/12/01 06:14:58;;;;;;;;;;;;;;;-144.99;100.00;52574.47;5036512;28;20007;-77
2021/12/01 06:17:25;;;;;;;;;;;;;;;-144.99;100.00;52582.63;5041483;28;20445;-78
2021/12/01 06:19:52;;;;;;;;;;;;;;;-144.99;100.00;52574.47;5045658;28;20201;-76
2021/12/01 06:22:20;;;;;;;;;;;;;;;-144.99;100.00;52560.19;5045195;28;20737;-75
2021/12/01 06:24:46;;;;;;;;;;;;;;;-144.99;100.00;52558.16;5036900;28;20013;-77
2021/12/01 06:27:13;;;;;;;;;;;;;;;-144.99;100.00;52598.94;5040474;28;20091;-80
2021/12/01 06:29:39;;;;;;;;;;;;;;;-144.99;100.00;52554.09;5041878;28;20092;-76
2021/12/01 06:32:06;;;;;;;;;;;;;;;-144.99;100.00;52574.47;5043023;28;19993;-78
2021/12/01 06:34:32;;;;;;;;;;;;;;;-144.99;100.00;52539.81;5041425;28;20024;-78
2021/12/01 06:36:59;;;;;;;;;;;;;;;-144.99;100.00;52570.38;5046579;28;19981;-76
2021/12/01 06:39:27;;;;;;;;;;;;;;;-144.99;100.00;52566.31;5043770;28;19977;-78
2021/12/01 06:41:54;;;;;;;;;;;;;;;-144.99;100.00;52570.38;5040418;28;20093;-78
2021/12/01 06:44:21;;;;;;;;;;;;;;;-144.99;100.00;52527.59;5045133;28;20316;-76
2021/12/01 06:46:47;;;;;;;;;;;;;;;-144.99;100.00;52566.31;5040608;28;20017;-76
2021/12/01 06:49:14;;;;;;;;;;;;;;;-144.99;100.00;52582.63;5032984;28;19993;-77
2021/12/01 06:51:40;;;;;;;;;;;;;;;-144.99;100.00;52537.78;5043742;28;19997;-75
2021/12/01 06:54:07;;;;;;;;;;;;;;;-144.99;100.00;52541.84;5040775;28;19977;-76
2021/12/01 06:56:35;;;;;;;;;;;;;;;-144.99;100.00;52578.53;5041962;28;20239;-76
2021/12/01 06:59:03;;;;;;;;;;;;;;;-144.99;100.00;52558.16;5039368;28;19985;-76
2021/12/01 07:01:29;;;;;;;;;;;;;;;-144.99;100.00;52541.84;5042147;28;20004;-76
2021/12/01 07:03:56;;;;;;;;;;;;;;;-144.99;100.00;52564.28;5040518;28;19981;-80
2021/12/01 07:06:22;;;;;;;;;;;;;;;-144.99;100.00;52578.53;5038031;28;20476;-76
2021/12/01 07:08:49;;;;;;;;;;;;;;;-144.99;100.00;52547.97;5044872;28;20064;-76
2021/12/01 07:11:15;;;;;;;;;;;;;;;-144.99;100.00;52562.25;5038096;28;20001;-77
2021/12/01 07:13:43;;;;;;;;;;;;;;;-144.99;100.00;52525.56;5043531;28;20121;-76
2021/12/01 07:16:10;;;;;;;;;;;;;;;-144.99;100.00;52600.97;5045111;28;20352;-75
2021/12/01 07:18:36;;;;;;;;;;;;;;;-144.99;100.00;52543.91;5042809;28;20020;-78
2021/12/01 07:21:04;;;;;;;;;;;;;;;-144.99;100.00;52586.69;5038552;28;20005;-78
2021/12/01 07:23:30;;;;;;;;;;;;;;;-144.99;100.00;52566.31;5045299;28;19981;-76
2021/12/01 07:25:57;;;;;;;;;;;;;;;-144.99;100.00;52586.69;5044022;28;20017;-76
2021/12/01 07:28:23;;;;;;;;;;;;;;;-144.99;100.00;52550.00;5041101;28;20115;-77
2021/12/01 07:30:51;;;;;;;;;;;;;;;-144.99;100.00;52558.16;5044860;28;20411;-75
2021/12/01 07:33:17;;;;;;;;;;;;;;;-144.99;100.00;52554.09;5043376;28;20218;-77
2021/12/01 07:35:44;;;;;;;;;;;;;;;-144.99;100.00;52574.47;5046962;28;19978;-75
2021/12/01 07:38:12;;;;;;;;;;;;;;;-144.99;100.00;52529.63;5045793;28;20070;-78
2021/12/01 07:40:38;;;;;;;;;;;;;;;-144.99;100.00;52576.50;5044411;28;20009;-77
2021/12/01 07:43:05;;;;;;;;;;;;;;;-144.99;100.00;52562.25;5048613;28;20013;-78
2021/12/01 07:45:31;;;;;;;;;;;;;;;-144.99;100.00;52566.31;5043334;28;19986;-79
2021/12/01 07:48:00;;;;;;;;;;;;;;;-144.99;100.00;52554.09;5060609;28;20400;-75
2021/12/01 07:50:26;;;;;;;;;;;;;;;-144.99;100.00;52566.31;5051666;28;20108;-75
2021/12/01 07:52:52;;;;;;;;;;;;;;;-144.99;100.00;52564.28;5038501;28;20484;-75
2021/12/01 07:55:19;;;;;;;;;;;;;;;-144.99;100.00;52554.09;5046589;28;20403;-75
2021/12/01 07:57:46;;;;;;;;;;;;;;;-144.99;100.00;52554.09;5045000;28;19977;-77
2021/12/01 08:00:13;;;;;;;;;;;;;;;-144.99;100.00;52547.97;5045586;28;19988;-75
2021/12/01 08:02:40;;;;;;;;;;;;;;;-144.99;100.00;52533.69;5043880;28;20066;-77
2021/12/01 08:05:08;;;;;;;;;;;;;;;-144.99;100.00;52568.34;5044035;28;20028;-76
2021/12/01 08:07:36;;;;;;;;;;;;;;;-144.99;100.00;52562.25;5048217;28;20078;-74
2021/12/01 08:10:03;;;;;;;;;;;;;;;-144.99;100.00;52598.94;5045081;28;20005;-77
2021/12/01 08:12:29;;;;;;;;;;;;;;;-144.99;100.00;52570.38;5043635;28;20032;-76
2021/12/01 08:14:56;;;;;;;;;;;;;;;-144.99;100.00;52547.97;5046109;28;19977;-76
2021/12/01 08:17:22;;;;;;;;;;;;;;;-144.99;100.00;52558.16;5041177;28;20017;-74
2021/12/01 08:19:49;;;;;;;;;;;;;;;-144.99;100.00;52562.25;5039488;28;20013;-76
2021/12/01 08:22:17;;;;;;;;;;;;;;;-144.99;100.00;52574.47;5047770;28;20035;-77
2021/12/01 08:24:43;;;;;;;;;;;;;;;-144.99;100.00;52574.47;5043097;28;19977;-79
2021/12/01 08:27:10;;;;;;;;;;;;;;;-144.99;100.00;52543.91;5048392;28;20013;-76
2021/12/01 08:29:36;;;;;;;;;;;;;;;-144.99;100.00;52558.16;5041727;28;19977;-77
2021/12/01 08:32:03;;;;;;;;;;;;;;;-144.99;100.00;52574.47;5040541;28;19994;-75
2021/12/01 08:34:30;;;;;;;;;;;;;;;-144.99;100.00;52554.09;5046751;28;20024;-75
2021/12/01 08:36:56;;;;;;;;;;;;;;;-144.99;100.00;52580.59;5040930;28;20016;-78
2021/12/01 08:39:24;;;;;;;;;;;;;;;-144.99;100.00;52574.47;5045433;28;20023;-77
2021/12/01 08:41:51;;;;;;;;;;;;;;;-144.99;100.00;52582.63;5046591;28;20012;-78
2021/12/01 08:44:18;;;;;;;;;;;;;;;-144.99;100.00;52594.84;5040398;28;20044;-76
2021/12/01 08:46:44;;;;;;;;;;;;;;;-144.99;100.00;52541.84;5035443;28;20465;-75
2021/12/01 08:49:11;;;;;;;;;;;;;;;-144.99;100.00;52603.00;5042435;28;19977;-78
2021/12/01 08:51:39;;;;;;;;;;;;;;;-144.99;100.00;52554.09;5042604;28;20001;-75
2021/12/01 08:54:06;;;;;;;;;;;;;;;-144.99;100.00;52582.63;5040138;28;20347;-77
2021/12/01 08:56:34;;;;;;;;;;;;;;;-144.99;100.00;52550.00;5044691;28;20300;-76
2021/12/01 08:59:00;;;;;;;;;;;;;;;-144.99;100.00;52582.63;5042567;28;19993;-78
2021/12/01 09:01:27;;;;;;;;;;;;;;;-144.99;100.00;52566.31;5042474;28;19997;-74
2021/12/01 09:03:53;;;;;;;;;;;;;;;-144.99;100.00;52584.66;5044557;28;20004;-76
2021/12/01 09:06:20;;;;;;;;;;;;;;;-144.99;100.00;52572.44;5041394;28;20106;-74
2021/12/01 09:08:46;;;;;;;;;;;;;;;-144.99;100.00;52584.66;5047675;28;19985;-76
2021/12/01 09:11:13;;;;;;;;;;;;;;;-144.99;100.00;52582.63;5042810;28;20032;-74
2021/12/01 09:13:41;;;;;;;;;;;;;;;-144.99;100.00;52545.94;5043231;28;20043;-75
2021/12/01 09:16:07;;;;;;;;;;;;;;;-144.99;100.00;52572.44;5043953;28;20016;-75
2021/12/01 09:18:34;;;;;;;;;;;;;;;-144.99;100.00;52594.84;5042578;28;19984;-77
2021/12/01 09:21:01;;;;;;;;;;;;;;;-144.99;100.00;52578.53;5045863;28;20023;-75
2021/12/01 09:23:27;;;;;;;;;;;;;;;-144.99;100.00;52554.09;5030664;28;19977;-75
2021/12/01 09:25:53;;;;;;;;;;;;;;;-144.99;100.00;52586.69;5042277;28;20047;-79
2021/12/01 09:28:22;;;;;;;;;;;;;;;-144.99;100.00;52566.31;5042297;28;20079;-78
2021/12/01 09:30:51;;;;;;;;;;;;;;;-144.99;100.00;52578.53;5045391;28;20026;-75
2021/12/01 09:33:17;;;;;;;;;;;;;;;-144.99;100.00;52572.44;5034589;28;20072;-77
2021/12/01 09:35:44;;;;;;;;;;;;;;;-144.99;100.00;52558.16;5044115;28;20035;-75
2021/12/01 09:38:14;;;;;;;;;;;;;;;-144.99;100.00;52570.38;5041971;28;20012;-76
2021/12/01 09:40:41;;;;;;;;;;;;;;;-144.99;100.00;52586.69;5038968;28;19997;-79
2021/12/01 09:43:07;;;;;;;;;;;;;;;-144.99;100.00;52590.78;5040631;28;19977;-77
2021/12/01 09:45:34;;;;;;;;;;;;;;;-144.99;100.00;52570.38;5037567;28;20012;-75
2021/12/01 09:48:01;;;;;;;;;;;;;;;-144.99;100.00;52603.00;5036030;28;19982;-74
2021/12/01 09:50:28;;;;;;;;;;;;;;;-144.99;100.00;52562.25;5042337;28;20082;-75
2021/12/01 09:52:54;;;;;;;;;;;;;;;-144.99;100.00;52586.69;5043174;28;19985;-77
2021/12/01 09:55:21;;;;;;;;;;;;;;;-144.99;100.00;52550.00;5039629;28;20012;-75
2021/12/01 09:57:55;;;;;;;;;;;;;;;-144.99;100.00;52603.00;5039153;28;20013;-74
2021/12/01 10:00:21;;;;;;;;;;;;;;;-144.99;100.00;52619.31;5039144;28;20983;-75
2021/12/01 10:02:48;;;;;;;;;;;;;;;-144.99;100.00;52521.47;5041311;28;19977;-76
2021/12/01 10:05:36;;;;;;;;;;;;;;;-144.99;100.00;52572.44;5041623;28;20265;-77
2021/12/01 10:08:03;;;;;;;;;;;;;;;-144.99;100.00;52558.16;5045337;28;19985;-77
2021/12/01 10:10:36;;;;;;;;;;;;;;;-144.99;100.00;52550.00;4977379;28;1863178;-79
2021/12/01 10:13:02;;;;;;;;;;;;;;;-144.99;100.00;52570.38;5046334;28;20203;-76
2021/12/01 10:15:30;;;;;;;;;;;;;;;-144.99;100.00;52570.38;5044245;28;19980;-76
2021/12/01 10:18:08;;;;;;;;;;;;;;;-144.99;100.00;52558.16;5044061;28;19988;-76
2021/12/01 10:20:36;;;;;;;;;;;;;;;-144.99;100.00;52552.03;5048800;28;19996;-78
2021/12/01 10:23:06;;;;;;;;;;;;;;;-144.99;100.00;52570.38;5046969;28;20366;-78
2021/12/01 10:25:33;;;;;;;;;;;;;;;-144.99;100.00;52562.25;5040566;28;19975;-76
2021/12/01 10:27:59;;;;;;;;;;;;;;;-144.99;100.00;52552.03;5040557;28;20479;-77
2021/12/01 10:30:36;;;;;;;;;;;;;;;-144.99;100.00;52600.97;5044269;28;20131;-76
2021/12/01 10:33:07;;;;;;;;;;;;;;;-144.99;100.00;52619.31;5037334;28;20383;-75
2021/12/01 10:35:34;;;;;;;;;;;;;;;-144.99;100.00;52590.78;5035877;28;20088;-75
2021/12/01 10:38:02;;;;;;;;;;;;;;;-144.99;100.00;52598.94;5039664;28;20036;-75
2021/12/01 10:40:29;;;;;;;;;;;;;;;-144.99;100.00;52560.19;5034598;28;19997;-77
2021/12/01 10:42:56;;;;;;;;;;;;;;;-144.99;100.00;52562.25;5044823;28;20079;-76
2021/12/01 10:45:24;;;;;;;;;;;;;;;-144.99;100.00;52556.13;5036517;28;20044;-75
2021/12/01 10:47:50;;;;;;;;;;;;;;;-144.99;100.00;52566.31;5034582;28;20061;-75
2021/12/01 10:50:18;;;;;;;;;;;;;;;-144.99;100.00;52566.31;5039545;28;19973;-78
2021/12/01 10:52:47;;;;;;;;;;;;;;;-144.99;100.00;52600.97;5045734;28;20000;-77
2021/12/01 10:55:16;;;;;;;;;;;;;;;-144.99;100.00;52545.94;5039225;28;19977;-75
2021/12/01 10:57:44;;;;;;;;;;;;;;;-144.99;100.00;52529.63;5038658;28;19981;-75
2021/12/01 11:00:12;;;;;;;;;;;;;;;-144.99;100.00;52586.69;5038498;28;19973;-76
2021/12/01 11:02:38;;;;;;;;;;;;;;;-144.99;100.00;52545.94;5038757;28;20020;-78
2021/12/01 11:05:05;;;;;;;;;;;;;;;-144.99;100.00;52576.50;5039734;28;19992;-76
2021/12/01 11:07:33;;;;;;;;;;;;;;;-144.99;100.00;52556.13;5042377;28;20083;-75
2021/12/01 11:10:18;;;;;;;;;;;;;;;-144.99;100.00;52554.09;5041666;28;19981;-77
2021/12/01 11:12:45;;;;;;;;;;;;;;;-144.99;100.00;52570.38;5040095;28;19977;-78
2021/12/01 11:15:16;;;;;;;;;;;;;;;-144.99;100.00;52582.63;5044107;28;20478;-78
2021/12/01 11:17:43;;;;;;;;;;;;;;;-144.99;100.00;52533.69;5042209;28;20428;-77
2021/12/01 11:20:10;;;;;;;;;;;;;;;-144.99;100.00;52562.25;5042315;28;19977;-78
2021/12/01 11:22:37;;;;;;;;;;;;;;;-144.99;100.00;52531.66;5042947;28;19977;-77
2021/12/01 11:25:21;;;;;;;;;;;;;;;-144.99;100.00;52582.63;5039476;28;20742;-78
2021/12/01 11:27:49;;;;;;;;;;;;;;;-144.99;100.00;52558.16;5042800;28;20004;-76
2021/12/01 11:30:16;;;;;;;;;;;;;;;-144.99;100.00;52570.38;5044886;28;20027;-77
2021/12/01 11:32:42;;;;;;;;;;;;;;;-144.99;100.00;52592.81;5038177;28;20471;-77
2021/12/01 11:35:09;;;;;;;;;;;;;;;-144.99;100.00;52590.78;5033787;28;20017;-76
2021/12/01 11:37:36;;;;;;;;;;;;;;;-144.99;100.00;52529.63;5037059;28;20413;-78
2021/12/01 11:40:02;;;;;;;;;;;;;;;-144.99;100.00;52576.50;5042756;28;20091;-78
2021/12/01 11:42:29;;;;;;;;;;;;;;;-144.99;100.00;52570.38;5040874;28;20035;-77
2021/12/01 11:44:57;;;;;;;;;;;;;;;-144.99;100.00;52564.28;5040363;28;20024;-77
2021/12/01 11:47:24;;;;;;;;;;;;;;;-144.99;100.00;52574.47;5040787;28;20001;-79
2021/12/01 11:49:53;;;;;;;;;;;;;;;-144.99;100.00;52590.78;5044343;28;19981;-78
2021/12/01 11:52:22;;;;;;;;;;;;;;;-144.99;100.00;52566.31;5037685;28;20033;-78
2021/12/01 11:54:48;;;;;;;;;;;;;;;-144.99;100.00;52574.47;5037258;28;19977;-77
2021/12/01 11:57:16;;;;;;;;;;;;;;;-144.99;100.00;52525.56;5040033;28;20391;-77
2021/12/01 11:59:45;;;;;;;;;;;;;;;-144.99;100.00;52580.59;5041373;28;19997;-78
2021/12/01 12:02:23;;;;;;;;;;;;;;;-144.99;100.00;52529.63;5036758;28;20528;-80
2021/12/01 12:04:51;;;;;;;;;;;;;;;-144.99;100.00;52545.94;5040396;28;20053;-80
2021/12/01 12:07:19;;;;;;;;;;;;;;;-144.99;100.00;52558.16;5037983;28;19981;-76
2021/12/01 12:10:00;;;;;;;;;;;;;;;-144.99;100.00;52558.16;5041594;28;20473;-77
2021/12/01 12:12:26;;;;;;;;;;;;;;;-144.99;100.00;52550.00;5035692;28;20418;-80
2021/12/01 12:14:55;;;;;;;;;;;;;;;-144.99;100.00;52572.44;5043673;28;20023;-77
2021/12/01 12:17:32;;;;;;;;;;;;;;;-144.99;100.00;52554.09;5030242;28;20022;-75
2021/12/01 12:20:03;;;;;;;;;;;;;;;-144.99;100.00;52533.69;5037764;28;20442;-79
2021/12/01 12:22:34;;;;;;;;;;;;;;;-144.99;100.00;52562.25;5042916;28;20484;-76
2021/12/01 12:25:02;;;;;;;;;;;;;;;-144.99;100.00;52598.94;5040189;28;20387;-80